sensor_id;sensor_type;location;lat;lon;timestamp;pressure;altitude;pressure_sealevel;temperature;humidity
34506;BME280;20748;42.632;23.198;2024-01-30T00:00:31;93726.34;;;-3.02;84.54
34506;BME280;20748;42.632;23.198;2024-01-30T00:03:06;93731.22;;;-2.92;84.47
34506;BME280;20748;42.632;23.198;2024-01-30T00:05:40;93725.91;;;-3.05;84.91
34506;BME280;20748;42.632;23.198;2024-01-30T00:08:14;93736.41;;;-3.00;84.77
34506;BME280;20748;42.632;23.198;2024-01-30T00:10:48;93736.91;;;-3.05;84.90
34506;BME280;20748;42.632;23.198;2024-01-30T00:13:21;93741.41;;;-3.07;85.10
34506;BME280;20748;42.632;23.198;2024-01-30T00:15:55;93737.03;;;-2.98;85.22
34506;BME280;20748;42.632;23.198;2024-01-30T00:18:30;93737.50;;;-3.18;84.91
34506;BME280;20748;42.632;23.198;2024-01-30T00:21:04;93739.81;;;-3.08;85.09
34506;BME280;20748;42.632;23.198;2024-01-30T00:23:38;93743.72;;;-2.97;84.79
34506;BME280;20748;42.632;23.198;2024-01-30T00:26:12;93743.63;;;-3.04;83.82
34506;BME280;20748;42.632;23.198;2024-01-30T00:28:47;93739.94;;;-3.01;83.65
34506;BME280;20748;42.632;23.198;2024-01-30T00:31:20;93741.97;;;-2.97;84.23
34506;BME280;20748;42.632;23.198;2024-01-30T00:33:56;93738.50;;;-3.04;84.05
34506;BME280;20748;42.632;23.198;2024-01-30T00:36:29;93735.38;;;-3.14;84.39
34506;BME280;20748;42.632;23.198;2024-01-30T00:39:03;93732.31;;;-3.10;84.42
34506;BME280;20748;42.632;23.198;2024-01-30T00:41:39;93732.31;;;-3.10;84.81
34506;BME280;20748;42.632;23.198;2024-01-30T00:44:13;93735.44;;;-3.22;84.56
34506;BME280;20748;42.632;23.198;2024-01-30T00:46:47;93726.69;;;-3.28;85.26
34506;BME280;20748;42.632;23.198;2024-01-30T00:49:22;93724.38;;;-3.38;85.16
34506;BME280;20748;42.632;23.198;2024-01-30T00:51:56;93731.00;;;-3.29;85.43
34506;BME280;20748;42.632;23.198;2024-01-30T00:54:30;93729.41;;;-3.30;85.31
34506;BME280;20748;42.632;23.198;2024-01-30T00:57:04;93720.22;;;-3.39;86.21
34506;BME280;20748;42.632;23.198;2024-01-30T00:59:38;93725.59;;;-3.34;85.68
34506;BME280;20748;42.632;23.198;2024-01-30T01:02:12;93725.34;;;-3.39;85.92
34506;BME280;20748;42.632;23.198;2024-01-30T01:04:47;93725.22;;;-3.46;86.65
34506;BME280;20748;42.632;23.198;2024-01-30T01:07:21;93723.25;;;-3.67;87.24
34506;BME280;20748;42.632;23.198;2024-01-30T01:09:55;93726.78;;;-3.68;87.85
34506;BME280;20748;42.632;23.198;2024-01-30T01:12:29;93724.50;;;-3.63;87.84
34506;BME280;20748;42.632;23.198;2024-01-30T01:15:03;93722.63;;;-3.69;88.65
34506;BME280;20748;42.632;23.198;2024-01-30T01:17:37;93717.53;;;-3.69;88.47
34506;BME280;20748;42.632;23.198;2024-01-30T01:20:13;93712.06;;;-3.66;88.08
34506;BME280;20748;42.632;23.198;2024-01-30T01:22:46;93711.88;;;-3.56;88.20
34506;BME280;20748;42.632;23.198;2024-01-30T01:25:20;93707.06;;;-3.51;87.42
34506;BME280;20748;42.632;23.198;2024-01-30T01:27:54;93711.69;;;-3.55;86.93
34506;BME280;20748;42.632;23.198;2024-01-30T01:30:29;93713.22;;;-3.69;87.17
34506;BME280;20748;42.632;23.198;2024-01-30T01:33:02;93712.69;;;-3.64;87.58
34506;BME280;20748;42.632;23.198;2024-01-30T01:35:38;93712.44;;;-3.69;87.94
34506;BME280;20748;42.632;23.198;2024-01-30T01:38:12;93705.41;;;-3.67;87.70
34506;BME280;20748;42.632;23.198;2024-01-30T01:40:46;93702.00;;;-3.59;88.15
34506;BME280;20748;42.632;23.198;2024-01-30T01:43:20;93700.44;;;-3.69;88.12
34506;BME280;20748;42.632;23.198;2024-01-30T01:45:53;93703.00;;;-3.69;87.65
34506;BME280;20748;42.632;23.198;2024-01-30T01:48:27;93712.97;;;-3.82;88.86
34506;BME280;20748;42.632;23.198;2024-01-30T01:51:03;93710.25;;;-3.81;89.12
34506;BME280;20748;42.632;23.198;2024-01-30T01:53:37;93709.16;;;-3.86;89.00
34506;BME280;20748;42.632;23.198;2024-01-30T01:56:11;93709.16;;;-3.86;89.79
34506;BME280;20748;42.632;23.198;2024-01-30T01:58:46;93709.75;;;-3.76;90.04
34506;BME280;20748;42.632;23.198;2024-01-30T02:01:21;93712.75;;;-3.72;89.58
34506;BME280;20748;42.632;23.198;2024-01-30T02:03:57;93711.47;;;-3.68;89.40
34506;BME280;20748;42.632;23.198;2024-01-30T02:06:33;93690.31;;;-3.77;88.40
34506;BME280;20748;42.632;23.198;2024-01-30T02:09:07;93722.66;;;-3.78;88.35
34506;BME280;20748;42.632;23.198;2024-01-30T02:11:41;93711.84;;;-3.80;89.01
34506;BME280;20748;42.632;23.198;2024-01-30T02:14:15;93721.38;;;-3.73;88.93
34506;BME280;20748;42.632;23.198;2024-01-30T02:16:49;93715.34;;;-3.81;88.95
34506;BME280;20748;42.632;23.198;2024-01-30T02:19:22;93719.13;;;-3.77;89.36
34506;BME280;20748;42.632;23.198;2024-01-30T02:21:58;93714.50;;;-3.73;89.33
34506;BME280;20748;42.632;23.198;2024-01-30T02:24:31;93713.06;;;-3.75;89.10
34506;BME280;20748;42.632;23.198;2024-01-30T02:27:05;93705.16;;;-3.81;89.16
34506;BME280;20748;42.632;23.198;2024-01-30T02:29:39;93715.81;;;-3.77;89.41
34506;BME280;20748;42.632;23.198;2024-01-30T02:32:12;93704.66;;;-3.84;89.19
34506;BME280;20748;42.632;23.198;2024-01-30T02:34:46;93704.56;;;-3.91;88.94
34506;BME280;20748;42.632;23.198;2024-01-30T02:37:21;93705.31;;;-3.82;89.56
34506;BME280;20748;42.632;23.198;2024-01-30T02:39:55;93707.69;;;-3.81;88.56
34506;BME280;20748;42.632;23.198;2024-01-30T02:42:29;93708.78;;;-3.75;88.25
34506;BME280;20748;42.632;23.198;2024-01-30T02:45:03;93704.78;;;-3.69;88.35
34506;BME280;20748;42.632;23.198;2024-01-30T02:47:36;93716.47;;;-3.83;88.13
34506;BME280;20748;42.632;23.198;2024-01-30T02:50:10;93708.31;;;-3.79;88.37
34506;BME280;20748;42.632;23.198;2024-01-30T02:52:46;93709.22;;;-3.71;88.21
34506;BME280;20748;42.632;23.198;2024-01-30T02:55:19;93711.25;;;-3.58;88.57
34506;BME280;20748;42.632;23.198;2024-01-30T02:57:53;93706.72;;;-3.48;87.83
34506;BME280;20748;42.632;23.198;2024-01-30T03:00:27;93715.63;;;-3.44;87.58
34506;BME280;20748;42.632;23.198;2024-01-30T03:03:01;93715.28;;;-3.41;86.87
34506;BME280;20748;42.632;23.198;2024-01-30T03:05:34;93713.53;;;-3.40;86.80
34506;BME280;20748;42.632;23.198;2024-01-30T03:08:10;93708.91;;;-3.37;86.71
34506;BME280;20748;42.632;23.198;2024-01-30T03:10:44;93694.22;;;-3.43;86.70
34506;BME280;20748;42.632;23.198;2024-01-30T03:13:17;93699.06;;;-3.48;86.17
34506;BME280;20748;42.632;23.198;2024-01-30T03:15:51;93707.13;;;-3.36;86.38
34506;BME280;20748;42.632;23.198;2024-01-30T03:18:25;93696.38;;;-3.31;86.78
34506;BME280;20748;42.632;23.198;2024-01-30T03:20:58;93697.88;;;-3.37;85.84
34506;BME280;20748;42.632;23.198;2024-01-30T03:23:34;93692.72;;;-3.52;86.43
34506;BME280;20748;42.632;23.198;2024-01-30T03:26:08;93692.66;;;-3.44;85.88
34506;BME280;20748;42.632;23.198;2024-01-30T03:28:41;93692.94;;;-3.39;86.35
34506;BME280;20748;42.632;23.198;2024-01-30T03:31:15;93695.19;;;-3.44;85.67
34506;BME280;20748;42.632;23.198;2024-01-30T03:33:49;93684.16;;;-3.59;85.71
34506;BME280;20748;42.632;23.198;2024-01-30T03:36:23;93684.75;;;-3.57;85.53
34506;BME280;20748;42.632;23.198;2024-01-30T03:38:58;93674.16;;;-3.69;85.40
34506;BME280;20748;42.632;23.198;2024-01-30T03:41:32;93673.56;;;-3.80;86.78
34506;BME280;20748;42.632;23.198;2024-01-30T03:44:06;93671.03;;;-3.88;86.13
34506;BME280;20748;42.632;23.198;2024-01-30T03:46:39;93669.25;;;-3.79;86.45
34506;BME280;20748;42.632;23.198;2024-01-30T03:49:13;93669.91;;;-3.77;85.95
34506;BME280;20748;42.632;23.198;2024-01-30T03:51:47;93678.31;;;-3.77;86.11
34506;BME280;20748;42.632;23.198;2024-01-30T03:54:23;93674.16;;;-3.69;85.80
34506;BME280;20748;42.632;23.198;2024-01-30T03:56:56;93675.31;;;-3.80;85.23
34506;BME280;20748;42.632;23.198;2024-01-30T03:59:30;93665.16;;;-3.88;84.97
34506;BME280;20748;42.632;23.198;2024-01-30T04:02:04;93674.25;;;-3.86;84.73
34506;BME280;20748;42.632;23.198;2024-01-30T04:04:38;93667.06;;;-3.82;84.48
34506;BME280;20748;42.632;23.198;2024-01-30T04:07:12;93664.34;;;-3.81;84.80
34506;BME280;20748;42.632;23.198;2024-01-30T04:09:47;93667.22;;;-3.84;84.20
34506;BME280;20748;42.632;23.198;2024-01-30T04:12:21;93664.78;;;-3.77;84.29
34506;BME280;20748;42.632;23.198;2024-01-30T04:14:55;93669.16;;;-3.86;83.94
34506;BME280;20748;42.632;23.198;2024-01-30T04:17:28;93668.47;;;-3.80;83.95
34506;BME280;20748;42.632;23.198;2024-01-30T04:20:03;93673.88;;;-3.74;83.37
34506;BME280;20748;42.632;23.198;2024-01-30T04:22:37;93674.63;;;-3.66;83.46
34506;BME280;20748;42.632;23.198;2024-01-30T04:25:13;93671.34;;;-3.83;82.77
34506;BME280;20748;42.632;23.198;2024-01-30T04:27:47;93675.47;;;-3.82;82.99
34506;BME280;20748;42.632;23.198;2024-01-30T04:30:21;93677.03;;;-3.72;82.60
34506;BME280;20748;42.632;23.198;2024-01-30T04:32:55;93674.69;;;-3.82;82.39
34506;BME280;20748;42.632;23.198;2024-01-30T04:35:28;93687.16;;;-3.87;82.78
34506;BME280;20748;42.632;23.198;2024-01-30T04:38:02;93691.63;;;-3.89;82.94
34506;BME280;20748;42.632;23.198;2024-01-30T04:40:37;93690.53;;;-3.87;82.85
34506;BME280;20748;42.632;23.198;2024-01-30T04:43:11;93687.47;;;-3.91;82.75
34506;BME280;20748;42.632;23.198;2024-01-30T04:45:45;93693.38;;;-3.90;83.10
34506;BME280;20748;42.632;23.198;2024-01-30T04:48:18;93686.53;;;-3.89;82.81
34506;BME280;20748;42.632;23.198;2024-01-30T04:50:52;93687.09;;;-3.79;83.41
34506;BME280;20748;42.632;23.198;2024-01-30T04:53:26;93697.50;;;-3.81;83.11
34506;BME280;20748;42.632;23.198;2024-01-30T04:56:01;93703.13;;;-3.94;82.95
34506;BME280;20748;42.632;23.198;2024-01-30T04:58:35;93697.25;;;-4.02;83.43
34506;BME280;20748;42.632;23.198;2024-01-30T05:01:09;93710.38;;;-4.14;83.43
34506;BME280;20748;42.632;23.198;2024-01-30T05:03:43;93706.72;;;-4.20;84.34
34506;BME280;20748;42.632;23.198;2024-01-30T05:06:24;93709.16;;;-4.26;84.33
34506;BME280;20748;42.632;23.198;2024-01-30T05:08:58;93711.84;;;-4.28;84.54
34506;BME280;20748;42.632;23.198;2024-01-30T05:11:36;93712.47;;;-4.18;84.28
34506;BME280;20748;42.632;23.198;2024-01-30T05:14:10;93701.16;;;-4.23;84.74
34506;BME280;20748;42.632;23.198;2024-01-30T05:16:44;93710.03;;;-4.11;84.74
34506;BME280;20748;42.632;23.198;2024-01-30T05:19:19;93717.88;;;-4.21;84.01
34506;BME280;20748;42.632;23.198;2024-01-30T05:21:55;93711.69;;;-4.26;84.86
34506;BME280;20748;42.632;23.198;2024-01-30T05:24:29;93703.13;;;-4.42;85.29
34506;BME280;20748;42.632;23.198;2024-01-30T05:27:04;93726.34;;;-4.28;85.57
34506;BME280;20748;42.632;23.198;2024-01-30T05:29:38;93721.38;;;-4.22;85.85
34506;BME280;20748;42.632;23.198;2024-01-30T05:32:12;93720.06;;;-4.09;85.79
34506;BME280;20748;42.632;23.198;2024-01-30T05:34:46;93719.44;;;-4.11;85.43
34506;BME280;20748;42.632;23.198;2024-01-30T05:37:19;93718.66;;;-4.12;85.88
34506;BME280;20748;42.632;23.198;2024-01-30T05:39:53;93714.31;;;-4.03;85.84
34506;BME280;20748;42.632;23.198;2024-01-30T05:42:28;93716.44;;;-4.15;86.28
34506;BME280;20748;42.632;23.198;2024-01-30T05:45:02;93720.44;;;-4.21;86.09
34506;BME280;20748;42.632;23.198;2024-01-30T05:47:37;93718.19;;;-4.15;85.87
34506;BME280;20748;42.632;23.198;2024-01-30T05:50:11;93722.00;;;-4.11;85.30
34506;BME280;20748;42.632;23.198;2024-01-30T05:52:45;93723.44;;;-4.09;85.08
34506;BME280;20748;42.632;23.198;2024-01-30T05:55:19;93720.22;;;-4.11;85.15
34506;BME280;20748;42.632;23.198;2024-01-30T05:57:54;93713.59;;;-4.20;85.92
34506;BME280;20748;42.632;23.198;2024-01-30T06:00:28;93718.53;;;-4.27;85.59
34506;BME280;20748;42.632;23.198;2024-01-30T06:03:02;93715.81;;;-4.25;86.32
34506;BME280;20748;42.632;23.198;2024-01-30T06:05:36;93719.81;;;-4.23;86.18
34506;BME280;20748;42.632;23.198;2024-01-30T06:08:10;93712.13;;;-4.14;85.29
34506;BME280;20748;42.632;23.198;2024-01-30T06:10:43;93716.78;;;-4.26;85.89
34506;BME280;20748;42.632;23.198;2024-01-30T06:13:19;93715.97;;;-4.27;85.64
34506;BME280;20748;42.632;23.198;2024-01-30T06:15:53;93713.94;;;-4.32;85.82
34506;BME280;20748;42.632;23.198;2024-01-30T06:18:27;93710.41;;;-4.31;85.46
34506;BME280;20748;42.632;23.198;2024-01-30T06:21:04;93718.22;;;-4.32;85.54
34506;BME280;20748;42.632;23.198;2024-01-30T06:23:37;93713.66;;;-4.45;85.20
34506;BME280;20748;42.632;23.198;2024-01-30T06:26:11;93725.75;;;-4.47;85.70
34506;BME280;20748;42.632;23.198;2024-01-30T06:28:46;93732.28;;;-4.45;86.05
34506;BME280;20748;42.632;23.198;2024-01-30T06:31:20;93736.13;;;-4.49;85.91
34506;BME280;20748;42.632;23.198;2024-01-30T06:33:54;93740.25;;;-4.48;85.89
34506;BME280;20748;42.632;23.198;2024-01-30T06:36:28;93732.13;;;-4.43;85.78
34506;BME280;20748;42.632;23.198;2024-01-30T06:39:02;93725.63;;;-4.54;85.38
34506;BME280;20748;42.632;23.198;2024-01-30T06:41:36;93742.81;;;-4.56;85.80
34506;BME280;20748;42.632;23.198;2024-01-30T06:44:11;93735.50;;;-4.59;86.04
34506;BME280;20748;42.632;23.198;2024-01-30T06:46:44;93731.34;;;-4.52;85.53
34506;BME280;20748;42.632;23.198;2024-01-30T06:49:18;93730.88;;;-4.55;85.98
34506;BME280;20748;42.632;23.198;2024-01-30T06:51:54;93733.38;;;-4.47;85.89
34506;BME280;20748;42.632;23.198;2024-01-30T06:54:28;93737.38;;;-4.36;85.79
34506;BME280;20748;42.632;23.198;2024-01-30T06:57:02;93733.69;;;-4.42;85.03
34506;BME280;20748;42.632;23.198;2024-01-30T06:59:37;93738.50;;;-4.39;84.72
34506;BME280;20748;42.632;23.198;2024-01-30T07:02:15;93735.59;;;-4.36;84.84
34506;BME280;20748;42.632;23.198;2024-01-30T07:04:50;93743.88;;;-4.25;84.76
34506;BME280;20748;42.632;23.198;2024-01-30T07:07:23;93739.69;;;-4.18;83.28
34506;BME280;20748;42.632;23.198;2024-01-30T07:09:57;93736.94;;;-4.08;83.38
34506;BME280;20748;42.632;23.198;2024-01-30T07:12:32;93738.84;;;-4.02;82.77
34506;BME280;20748;42.632;23.198;2024-01-30T07:15:07;93735.97;;;-3.99;82.19
34506;BME280;20748;42.632;23.198;2024-01-30T07:17:41;93735.84;;;-4.06;81.19
34506;BME280;20748;42.632;23.198;2024-01-30T07:20:15;93737.88;;;-3.93;81.38
34506;BME280;20748;42.632;23.198;2024-01-30T07:22:50;93733.72;;;-3.94;80.34
34506;BME280;20748;42.632;23.198;2024-01-30T07:25:24;93736.28;;;-3.94;79.98
34506;BME280;20748;42.632;23.198;2024-01-30T07:28:00;93731.81;;;-3.92;79.91
34506;BME280;20748;42.632;23.198;2024-01-30T07:30:35;93727.66;;;-3.93;79.17
34506;BME280;20748;42.632;23.198;2024-01-30T07:33:09;93725.25;;;-3.86;79.33
34506;BME280;20748;42.632;23.198;2024-01-30T07:35:45;93728.72;;;-3.79;79.17
34506;BME280;20748;42.632;23.198;2024-01-30T07:38:19;93727.91;;;-3.79;78.77
34506;BME280;20748;42.632;23.198;2024-01-30T07:40:54;93726.97;;;-3.78;78.24
34506;BME280;20748;42.632;23.198;2024-01-30T07:43:28;93721.53;;;-3.75;nan
34506;BME280;20748;42.632;23.198;2024-01-30T07:46:03;93728.38;;;-3.75;77.42
34506;BME280;20748;42.632;23.198;2024-01-30T07:48:38;93719.28;;;-3.70;76.30
34506;BME280;20748;42.632;23.198;2024-01-30T07:51:12;93721.53;;;-3.75;76.60
34506;BME280;20748;42.632;23.198;2024-01-30T07:53:52;93716.09;;;-3.72;76.43
34506;BME280;20748;42.632;23.198;2024-01-30T07:56:25;93716.38;;;-3.67;76.33
34506;BME280;20748;42.632;23.198;2024-01-30T07:58:59;93721.81;;;-3.70;76.30
34506;BME280;20748;42.632;23.198;2024-01-30T08:01:34;93714.31;;;-3.63;75.92
34506;BME280;20748;42.632;23.198;2024-01-30T08:04:08;93706.16;;;-3.67;76.09
34506;BME280;20748;42.632;23.198;2024-01-30T08:06:42;93707.13;;;-3.59;75.75
34506;BME280;20748;42.632;23.198;2024-01-30T08:09:17;93703.47;;;-3.65;75.74
34506;BME280;20748;42.632;23.198;2024-01-30T08:11:51;93706.66;;;-3.63;76.25
34506;BME280;20748;42.632;23.198;2024-01-30T08:14:24;93704.00;;;-3.46;75.94
34506;BME280;20748;42.632;23.198;2024-01-30T08:17:00;93721.53;;;-3.43;76.06
34506;BME280;20748;42.632;23.198;2024-01-30T08:19:34;93710.03;;;-3.39;75.51
34506;BME280;20748;42.632;23.198;2024-01-30T08:22:08;93715.28;;;-3.41;75.03
34506;BME280;20748;42.632;23.198;2024-01-30T08:24:42;93712.69;;;-3.32;75.02
34506;BME280;20748;42.632;23.198;2024-01-30T08:27:17;93722.41;;;-3.28;74.77
34506;BME280;20748;42.632;23.198;2024-01-30T08:29:51;93716.66;;;-3.30;74.90
34506;BME280;20748;42.632;23.198;2024-01-30T08:32:26;93722.91;;;-3.09;75.07
34506;BME280;20748;42.632;23.198;2024-01-30T08:35:01;93727.41;;;-2.96;74.07
34506;BME280;20748;42.632;23.198;2024-01-30T08:37:36;93725.84;;;-2.97;73.55
34506;BME280;20748;42.632;23.198;2024-01-30T08:40:11;93728.72;;;-2.77;73.73
34506;BME280;20748;42.632;23.198;2024-01-30T08:42:45;93730.69;;;-2.64;72.85
34506;BME280;20748;42.632;23.198;2024-01-30T08:45:19;93728.22;;;-2.57;72.58
34506;BME280;20748;42.632;23.198;2024-01-30T08:47:54;93727.88;;;-2.54;72.08
34506;BME280;20748;42.632;23.198;2024-01-30T08:50:28;93731.56;;;-2.57;71.80
34506;BME280;20748;42.632;23.198;2024-01-30T08:53:02;93732.81;;;-2.52;71.38
34506;BME280;20748;42.632;23.198;2024-01-30T08:55:36;93737.06;;;-2.60;71.61
34506;BME280;20748;42.632;23.198;2024-01-30T08:58:11;93738.38;;;-2.49;71.53
34506;BME280;20748;42.632;23.198;2024-01-30T09:00:45;93740.50;;;-2.37;71.23
34506;BME280;20748;42.632;23.198;2024-01-30T09:03:20;93746.19;;;-2.27;71.33
34506;BME280;20748;42.632;23.198;2024-01-30T09:05:54;93742.22;;;-2.14;70.34
34506;BME280;20748;42.632;23.198;2024-01-30T09:08:29;93751.81;;;-2.02;70.24
34506;BME280;20748;42.632;23.198;2024-01-30T09:11:08;93751.56;;;-1.92;69.50
34506;BME280;20748;42.632;23.198;2024-01-30T09:13:42;93746.25;;;-1.90;69.62
34506;BME280;20748;42.632;23.198;2024-01-30T09:16:16;93738.84;;;-1.85;69.07
34506;BME280;20748;42.632;23.198;2024-01-30T09:18:52;93750.31;;;-1.81;69.13
34506;BME280;20748;42.632;23.198;2024-01-30T09:21:26;93735.22;;;-1.76;68.42
34506;BME280;20748;42.632;23.198;2024-01-30T09:24:02;93735.22;;;-1.76;69.59
34506;BME280;20748;42.632;23.198;2024-01-30T09:26:37;93738.72;;;-1.62;69.54
34506;BME280;20748;42.632;23.198;2024-01-30T09:29:11;93740.13;;;-1.44;69.56
34506;BME280;20748;42.632;23.198;2024-01-30T09:31:45;93728.69;;;-1.26;69.07
34506;BME280;20748;42.632;23.198;2024-01-30T09:34:20;93744.63;;;-1.24;69.85
34506;BME280;20748;42.632;23.198;2024-01-30T09:36:54;93731.22;;;-1.26;70.81
34506;BME280;20748;42.632;23.198;2024-01-30T09:39:28;93725.19;;;-1.40;71.81
34506;BME280;20748;42.632;23.198;2024-01-30T09:42:05;93735.16;;;-1.45;72.05
34506;BME280;20748;42.632;23.198;2024-01-30T09:44:44;93730.34;;;-1.33;72.89
34506;BME280;20748;42.632;23.198;2024-01-30T09:47:19;93741.19;;;-1.16;73.04
34506;BME280;20748;42.632;23.198;2024-01-30T09:49:55;93732.25;;;-1.20;72.18
34506;BME280;20748;42.632;23.198;2024-01-30T09:52:30;93734.78;;;-1.05;72.42
34506;BME280;20748;42.632;23.198;2024-01-30T09:55:04;93742.25;;;-1.26;71.50
34506;BME280;20748;42.632;23.198;2024-01-30T09:57:39;93742.34;;;-1.19;72.53
34506;BME280;20748;42.632;23.198;2024-01-30T10:00:13;93743.09;;;-1.18;71.59
34506;BME280;20748;42.632;23.198;2024-01-30T10:02:47;93737.03;;;-0.96;72.22
34506;BME280;20748;42.632;23.198;2024-01-30T10:05:23;93741.53;;;-0.76;71.79
34506;BME280;20748;42.632;23.198;2024-01-30T10:08:01;93748.91;;;-0.66;69.24
34506;BME280;20748;42.632;23.198;2024-01-30T10:10:35;93737.25;;;-0.69;69.47
34506;BME280;20748;42.632;23.198;2024-01-30T10:13:10;93738.84;;;-0.68;69.63
34506;BME280;20748;42.632;23.198;2024-01-30T10:15:44;93723.28;;;-0.66;70.14
34506;BME280;20748;42.632;23.198;2024-01-30T10:18:18;93726.81;;;-0.67;68.91
34506;BME280;20748;42.632;23.198;2024-01-30T10:20:54;93725.19;;;-0.75;69.97
34506;BME280;20748;42.632;23.198;2024-01-30T10:23:29;93727.50;;;-0.80;69.13
34506;BME280;20748;42.632;23.198;2024-01-30T10:26:07;93709.31;;;-1.07;70.21
34506;BME280;20748;42.632;23.198;2024-01-30T10:28:41;93724.91;;;-1.09;69.65
34506;BME280;20748;42.632;23.198;2024-01-30T10:31:16;93725.56;;;-1.00;70.77
34506;BME280;20748;42.632;23.198;2024-01-30T10:33:50;93716.16;;;-0.92;70.22
34506;BME280;20748;42.632;23.198;2024-01-30T10:36:40;93726.94;;;-0.75;69.92
34506;BME280;20748;42.632;23.198;2024-01-30T10:39:17;93717.34;;;-0.66;69.63
34506;BME280;20748;42.632;23.198;2024-01-30T10:41:53;93723.03;;;-0.43;69.21
34506;BME280;20748;42.632;23.198;2024-01-30T10:44:30;93718.19;;;-0.31;68.75
34506;BME280;20748;42.632;23.198;2024-01-30T10:47:12;93712.69;;;-0.28;67.68
34506;BME280;20748;42.632;23.198;2024-01-30T10:49:46;93717.63;;;-0.26;67.95
34506;BME280;20748;42.632;23.198;2024-01-30T10:52:23;93710.63;;;-0.39;67.52
34506;BME280;20748;42.632;23.198;2024-01-30T10:54:58;93708.78;;;-0.52;68.17
34506;BME280;20748;42.632;23.198;2024-01-30T10:57:34;93707.75;;;-0.58;67.38
34506;BME280;20748;42.632;23.198;2024-01-30T11:00:10;93709.44;;;-0.43;67.47
34506;BME280;20748;42.632;23.198;2024-01-30T11:02:46;93705.75;;;-0.62;67.82
34506;BME280;20748;42.632;23.198;2024-01-30T11:05:24;93683.47;;;-0.62;68.51
34506;BME280;20748;42.632;23.198;2024-01-30T11:08:13;93684.25;;;-0.61;68.77
34506;BME280;20748;42.632;23.198;2024-01-30T11:10:47;93690.28;;;-0.47;68.47
34506;BME280;20748;42.632;23.198;2024-01-30T11:13:21;93676.38;;;-0.60;68.02
34506;BME280;20748;42.632;23.198;2024-01-30T11:15:55;93685.47;;;-0.57;67.24
34506;BME280;20748;42.632;23.198;2024-01-30T11:18:35;93682.09;;;-0.64;68.91
34506;BME280;20748;42.632;23.198;2024-01-30T11:21:13;93678.16;;;-0.60;68.25
34506;BME280;20748;42.632;23.198;2024-01-30T11:23:49;93687.63;;;-0.61;68.01
34506;BME280;20748;42.632;23.198;2024-01-30T11:26:27;93680.06;;;-0.69;68.42
34506;BME280;20748;42.632;23.198;2024-01-30T11:29:03;93677.72;;;-0.64;68.75
34506;BME280;20748;42.632;23.198;2024-01-30T11:31:38;93686.22;;;-0.63;67.76
34506;BME280;20748;42.632;23.198;2024-01-30T11:34:14;93678.47;;;-0.70;68.40
34506;BME280;20748;42.632;23.198;2024-01-30T11:36:51;93676.56;;;-0.61;68.45
34506;BME280;20748;42.632;23.198;2024-01-30T11:39:29;93678.16;;;-0.60;68.03
34506;BME280;20748;42.632;23.198;2024-01-30T11:42:05;93685.25;;;-0.62;67.46
34506;BME280;20748;42.632;23.198;2024-01-30T11:44:39;93675.91;;;-0.70;68.79
34506;BME280;20748;42.632;23.198;2024-01-30T11:47:14;93684.84;;;-0.59;68.66
34506;BME280;20748;42.632;23.198;2024-01-30T11:49:48;93677.59;;;-0.56;68.69
34506;BME280;20748;42.632;23.198;2024-01-30T11:52:22;93683.53;;;-0.20;69.10
34506;BME280;20748;42.632;23.198;2024-01-30T11:54:58;93671.34;;;-0.11;67.48
34506;BME280;20748;42.632;23.198;2024-01-30T11:57:32;93670.69;;;-0.20;67.80
34506;BME280;20748;42.632;23.198;2024-01-30T12:00:14;93665.75;;;-0.21;66.93
34506;BME280;20748;42.632;23.198;2024-01-30T12:02:49;93645.44;;;-0.23;66.72
34506;BME280;20748;42.632;23.198;2024-01-30T12:05:24;93655.41;;;-0.35;66.79
34506;BME280;20748;42.632;23.198;2024-01-30T12:07:59;93654.09;;;-0.24;66.52
34506;BME280;20748;42.632;23.198;2024-01-30T12:10:35;93648.31;;;-0.33;67.19
34506;BME280;20748;42.632;23.198;2024-01-30T12:13:09;93649.34;;;-0.27;66.66
34506;BME280;20748;42.632;23.198;2024-01-30T12:15:43;93646.34;;;-0.37;67.83
34506;BME280;20748;42.632;23.198;2024-01-30T12:18:18;93642.25;;;-0.25;67.32
34506;BME280;20748;42.632;23.198;2024-01-30T12:20:59;93641.47;;;-0.19;66.87
34506;BME280;20748;42.632;23.198;2024-01-30T12:23:34;93633.38;;;-0.29;66.12
34506;BME280;20748;42.632;23.198;2024-01-30T12:26:10;93628.78;;;-0.34;66.33
34506;BME280;20748;42.632;23.198;2024-01-30T12:28:48;93627.38;;;-0.36;67.21
34506;BME280;20748;42.632;23.198;2024-01-30T12:31:25;93622.47;;;-0.31;66.61
34506;BME280;20748;42.632;23.198;2024-01-30T12:34:01;93622.25;;;-0.36;66.47
34506;BME280;20748;42.632;23.198;2024-01-30T12:36:35;93619.47;;;-0.42;67.05
34506;BME280;20748;42.632;23.198;2024-01-30T12:39:11;93618.16;;;-0.24;66.86
34506;BME280;20748;42.632;23.198;2024-01-30T12:41:46;93615.00;;;-0.26;66.05
34506;BME280;20748;42.632;23.198;2024-01-30T12:44:20;93614.44;;;-0.28;67.03
34506;BME280;20748;42.632;23.198;2024-01-30T12:46:54;93611.19;;;-0.44;66.91
34506;BME280;20748;42.632;23.198;2024-01-30T12:49:28;93605.13;;;-0.36;67.59
34506;BME280;20748;42.632;23.198;2024-01-30T12:52:03;93605.91;;;-0.35;66.75
34506;BME280;20748;42.632;23.198;2024-01-30T12:54:37;93600.78;;;-0.29;67.45
34506;BME280;20748;42.632;23.198;2024-01-30T12:57:12;93597.19;;;-0.41;66.76
34506;BME280;20748;42.632;23.198;2024-01-30T12:59:46;93598.38;;;-0.44;67.54
34506;BME280;20748;42.632;23.198;2024-01-30T13:02:20;93601.75;;;-0.36;66.96
34506;BME280;20748;42.632;23.198;2024-01-30T13:04:55;93583.59;;;-0.35;66.56
34506;BME280;20748;42.632;23.198;2024-01-30T13:07:29;93583.41;;;-0.33;66.13
34506;BME280;20748;42.632;23.198;2024-01-30T13:10:03;93586.34;;;-0.36;67.02
34506;BME280;20748;42.632;23.198;2024-01-30T13:12:38;93602.13;;;-0.39;66.82
34506;BME280;20748;42.632;23.198;2024-01-30T13:15:12;93593.19;;;-0.50;66.04
34506;BME280;20748;42.632;23.198;2024-01-30T13:17:46;93585.94;;;-0.47;66.85
34506;BME280;20748;42.632;23.198;2024-01-30T13:20:20;93579.34;;;-0.14;68.49
34506;BME280;20748;42.632;23.198;2024-01-30T13:22:55;93581.03;;;0.21;67.46
34506;BME280;20748;42.632;23.198;2024-01-30T13:25:28;93587.16;;;0.33;65.52
34506;BME280;20748;42.632;23.198;2024-01-30T13:28:04;93594.44;;;0.23;65.41